Azle, Texas
Current Conditions -  °F | °C
As of 9:53 PM on Sunday 25 Jan 2015 (Local Time) from KFTW Reporting Station
Clear Clear  
Wind Chill:   Ceiling: Unl
Heat Index:   Visibility: 10mi
Dew Point: -3°   Wind: 3mph
Humidity: 42%   Direction: 290°WNW
Pressure: 30.17"   Gusts: NA
Location:  32.88°N, 97.54°W
Report Text: KFTW 260353Z 29003KT 10SM CLR 09/M03 A3017 RMK AO2 SLP215 T00891033
Loading
Personal Weather Stations






























Interactive Weather Map New forecast layout! Learn more

10-Day Weather Forecast

Advertisements
Track Severe Weather on mobile